EW1388 Weather Reports


Display with metric or nautical units.
time (UTC)temp
F
wind
direction
speed
MPH
gust
MPH
rain 1hr
in
rain 24hr
in
rain mn
in
humidity
%
barometer
mb
20260906141546 72 90 6.0 11.0 0.00 0.00 0.00 90 1014.7
20260906140043 71 96 2.0 10.0 0.00 0.00 0.00 91 1014.8
20260906134538 71 107 2.0 11.0 0.00 0.00 0.00 92 1014.6
20260906133058 70 38 4.0 10.0 0.00 0.00 0.00 93 1014.3
20260906131537 70 39 1.0 6.0 0.00 0.00 0.00 93 1014.7
20260906130036 70 79 0.0 5.0 0.00 0.00 0.00 94 1014.7
20260906124535 69 23 0.0 4.0 0.00 0.00 0.00 94 1014.6
20260906123036 69 76 1.0 2.0 0.00 0.00 0.00 94 1014.5
20260906121531 69 76 0.0 1.0 0.00 0.00 0.00 94 1014.3
20260906120032 69 76 0.0 1.0 0.00 0.00 0.00 94 1014.1
20260906114542 68 76 0.0 0.0 0.00 0.00 0.00 94 1013.9
20260906113026 69 76 0.0 0.0 0.00 0.00 0.00 93 1013.6
20260906111524 69 76 0.0 3.0 0.00 0.00 0.00 93 1013.6
20260906110022 69 76 0.0 3.0 0.00 0.00 0.00 93 1013.3
20260906104523 69 76 0.0 4.0 0.00 0.00 0.00 93 1013.3
20260906103017 69 93 1.0 5.0 0.00 0.00 0.00 93 1013.0
20260906101522 69 95 0.0 3.0 0.00 0.00 0.00 93 1012.9
20260906100024 69 76 2.0 9.0 0.00 0.00 0.00 93 1012.6
20260906094515 70 85 3.0 8.0 0.00 0.00 0.00 93 1012.6
20260906093013 70 86 2.0 9.0 0.00 0.00 0.00 93 1012.5
20260906091519 70 59 1.0 7.0 0.00 0.00 0.00 93 1012.7
20260906090015 70 27 1.0 9.0 0.00 0.00 0.00 92 1012.3
20260906084510 71 82 3.0 11.0 0.00 0.00 0.00 92 1012.4
20260906083007 71 76 4.0 12.0 0.00 0.00 0.00 92 1012.6
20260906081505 71 30 3.0 11.0 0.00 0.00 0.00 92 1012.7
20260906080003 72 93 5.0 12.0 0.00 0.00 0.00 92 1012.6
20260906074600 72 88 6.0 10.0 0.00 0.00 0.00 92 1012.6
20260906073057 72 73 3.0 9.0 0.00 0.00 0.00 92 1012.6
20260906071600 72 93 2.0 10.0 0.00 0.00 0.00 92 1012.5
20260906070058 73 98 5.0 10.0 0.00 0.00 0.00 91 1012.4
20260906064554 73 96 1.0 5.0 0.00 0.00 0.00 91 1012.7
20260906063049 73 70 0.0 6.0 0.00 0.00 0.00 91 1012.9
20260906061549 73 45 0.0 5.0 0.00 0.00 0.00 91 1012.9
20260906060046 73 36 1.0 3.0 0.00 0.00 0.00 91 1012.9
20260906054556 73 45 0.0 2.0 0.00 0.00 0.00 91 1012.7
20260906053037 73 61 0.0 3.0 0.00 0.00 0.00 91 1012.5
20260906051542 73 23 0.0 4.0 0.00 0.00 0.00 91 1012.4
20260906050029 73 75 1.0 6.0 0.00 0.00 0.00 90 1012.2
20260906044527 74 98 2.0 6.0 0.00 0.00 0.00 90 1012.1
20260906043025 74 40 1.0 5.0 0.00 0.00 0.00 90 1011.8
20260906041527 74 36 1.0 7.0 0.00 0.00 0.00 89 1011.7
20260906040032 75 63 5.0 8.0 0.00 0.00 0.00 88 1011.6
20260906034519 76 91 5.0 10.0 0.00 0.00 0.00 87 1011.4
20260906033034 76 74 5.0 11.0 0.00 0.00 0.00 88 1011.5
20260906031515 77 59 3.0 8.0 0.00 0.00 0.00 89 1011.3
20260906030014 77 54 0.0 6.0 0.00 0.00 0.00 89 1011.3
20260906024513 78 53 0.0 5.0 0.00 0.00 0.00 88 1011.3
20260906023010 79 38 1.0 5.0 0.00 0.00 0.00 87 1011.0
20260906021510 79 345 2.0 9.0 0.00 0.00 0.00 85 1010.7
20260906020010 80 94 3.0 10.0 0.00 0.00 0.00 85 1010.5
20260906014509 81 45 2.0 9.0 0.00 0.00 0.00 84 1010.3
20260906013008 82 34 0.0 4.0 0.00 0.00 0.00 83 1010.1
20260906011514 82 57 1.0 9.0 0.00 0.00 0.00 83 1009.9
20260906010007 83 25 2.0 6.0 0.00 0.00 0.00 82 1009.9
20260906004507 84 18 3.0 9.0 0.00 0.00 0.00 80 1009.9
20260906003006 86 25 0.0 4.0 0.00 0.00 0.00 77 1009.8
20260906001504 87 42 0.0 0.0 0.00 0.00 0.00 77 1009.8
20260906000005 87 42 0.0 2.0 0.00 0.00 0.00 76 1009.8
20260905234505 88 42 0.0 3.0 0.00 0.00 0.00 74 1009.6
20260905233002 88 42 0.0 5.0 0.00 0.00 0.00 74 1009.5
20260905231503 88 47 0.0 3.0 0.00 0.00 0.00 75 1009.4
20260905230003 89 47 1.0 6.0 0.00 0.00 0.00 73 1009.5
20260905224501 91 51 2.0 5.0 0.00 0.00 0.00 70 1009.4
20260905223116 91 31 0.0 6.0 0.00 0.00 0.00 68 1009.3
20260905221604 91 20 2.0 6.0 0.00 0.00 0.00 68 1009.4
20260905220059 91 26 1.0 5.0 0.00 0.00 0.00 69 1009.5
20260905214602 91 36 0.0 5.0 0.00 0.00 0.00 69 1009.4
20260905213103 91 11 2.0 5.0 0.00 0.00 0.00 69 1009.4
20260905211558 90 360 2.0 6.0 0.00 0.00 0.00 71 1009.5
20260905210104 91 28 1.0 5.0 0.00 0.00 0.00 70 1009.6
20260905204556 91 5 0.0 3.0 0.00 0.00 0.00 68 1009.7
20260905203058 92 24 0.0 3.0 0.00 0.00 0.00 67 1009.7
20260905201555 92 42 0.0 2.0 0.00 0.00 0.00 66 1009.9
20260905200053 92 43 0.0 3.0 0.00 0.00 0.00 64 1009.9
20260905194551 92 9 0.0 3.0 0.00 0.00 0.00 64 1010.1
20260905193047 93 5 0.0 0.0 0.00 0.00 0.00 65 1010.1
20260905191544 92 360 0.0 2.0 0.00 0.00 0.00 65 1010.1
20260905190142 92 360 1.0 3.0 0.00 0.00 0.00 65 1010.2
20260905184553 92 25 2.0 6.0 0.00 0.00 0.00 66 1010.3
20260905183038 92 32 0.0 5.0 0.00 0.00 0.00 67 1010.4
20260905181537 92 23 0.0 5.0 0.00 0.00 0.00 66 1010.4
20260905180041 92 41 1.0 4.0 0.00 0.00 0.00 67 1010.5
20260905174533 91 329 1.0 3.0 0.00 0.00 0.00 67 1010.6
20260905173030 91 355 1.0 3.0 0.00 0.00 0.00 65 1010.9
20260905171530 91 320 1.0 3.0 0.00 0.00 0.00 65 1010.8
20260905170026 92 360 1.0 4.0 0.00 0.00 0.00 65 1010.8
20260905164530 91 327 2.0 5.0 0.00 0.00 0.00 63 1010.8
20260905163026 91 327 0.0 3.0 0.00 0.00 0.00 64 1010.9
20260905161521 90 323 1.0 3.0 0.00 0.00 0.00 67 1010.8
20260905160019 89 305 1.0 2.0 0.00 0.00 0.00 68 1010.8
20260905154516 89 305 0.0 2.0 0.00 0.00 0.00 68 1010.7
20260905153018 88 286 1.0 3.0 0.00 0.00 0.00 70 1010.7
20260905151518 87 286 1.0 3.0 0.00 0.00 0.00 71 1010.7
20260905150008 87 286 1.0 3.0 0.00 0.00 0.00 70 1010.5
20260905144521 86 286 2.0 4.0 0.00 0.00 0.00 69 1010.5
20260905143005 86 278 1.0 3.0 0.00 0.00 0.00 72 1010.5